Onslow, Iowa
Current Conditions -  °F | °C
As of 9:35 AM on Saturday 25 Oct 2014 (Local Time) from KMXO Reporting Station
Clear Clear  
Wind Chill: 57°   Ceiling: Unl
Heat Index: 57°   Visibility: 10mi
Dew Point: 48°   Wind: 9mph
Humidity: 72%   Direction: 310°NW
Pressure: 30.04"   Gusts: NA
Location:  42.11°N, 91.02°W
Report Text: KMXO 251435Z AUTO 31008KT 10SM CLR 14/09 A3004 RMK AO2
Loading
Personal Weather Stations






























Interactive Weather Map
Tropical Storm Tracking
New forecast layout! Learn more

10-Day Weather Forecast

Advertisements
Track Severe Weather on mobile